sensor_id;sensor_type;location;lat;lon;timestamp;P1;durP1;ratioP1;P2;durP2;ratioP2
51692;SDS011;37777;53.066;21.638;2023-11-19T00:00:43;146.25;;;134.35;;
51692;SDS011;37777;53.066;21.638;2023-11-19T00:24:44;148.73;;;136.00;;
51692;SDS011;37777;53.066;21.638;2023-11-19T00:48:45;146.70;;;135.15;;
51692;SDS011;37777;53.066;21.638;2023-11-19T00:55:48;145.98;;;134.65;;
51692;SDS011;37777;53.066;21.638;2023-11-19T01:02:50;142.73;;;131.35;;
51692;SDS011;37777;53.066;21.638;2023-11-19T01:09:53;142.80;;;131.60;;
51692;SDS011;37777;53.066;21.638;2023-11-19T02:08:41;151.43;;;139.77;;
51692;SDS011;37777;53.066;21.638;2023-11-19T02:15:43;146.75;;;134.88;;
51692;SDS011;37777;53.066;21.638;2023-11-19T02:31:13;147.38;;;135.98;;
51692;SDS011;37777;53.066;21.638;2023-11-19T02:38:15;141.43;;;129.83;;
51692;SDS011;37777;53.066;21.638;2023-11-19T02:53:39;137.55;;;126.95;;
51692;SDS011;37777;53.066;21.638;2023-11-19T03:25:15;136.77;;;126.07;;
51692;SDS011;37777;53.066;21.638;2023-11-19T03:32:17;135.73;;;124.95;;
51692;SDS011;37777;53.066;21.638;2023-11-19T03:47:50;135.77;;;125.45;;
51692;SDS011;37777;53.066;21.638;2023-11-19T03:54:52;133.90;;;123.55;;
51692;SDS011;37777;53.066;21.638;2023-11-19T04:01:56;140.73;;;129.88;;
51692;SDS011;37777;53.066;21.638;2023-11-19T04:08:58;135.57;;;125.18;;
51692;SDS011;37777;53.066;21.638;2023-11-19T04:15:59;137.02;;;126.45;;
51692;SDS011;37777;53.066;21.638;2023-11-19T04:23:01;137.50;;;126.95;;
51692;SDS011;37777;53.066;21.638;2023-11-19T04:38:25;137.65;;;127.40;;
51692;SDS011;37777;53.066;21.638;2023-11-19T04:45:28;134.25;;;124.13;;
51692;SDS011;37777;53.066;21.638;2023-11-19T04:52:30;136.38;;;126.10;;
51692;SDS011;37777;53.066;21.638;2023-11-19T04:59:33;132.80;;;122.72;;
51692;SDS011;37777;53.066;21.638;2023-11-19T05:06:35;135.10;;;124.50;;
51692;SDS011;37777;53.066;21.638;2023-11-19T05:30:27;138.43;;;126.75;;
51692;SDS011;37777;53.066;21.638;2023-11-19T05:37:28;143.18;;;131.45;;
51692;SDS011;37777;53.066;21.638;2023-11-19T05:51:50;140.13;;;127.97;;
51692;SDS011;37777;53.066;21.638;2023-11-19T05:58:52;138.40;;;126.25;;
51692;SDS011;37777;53.066;21.638;2023-11-19T06:05:54;133.88;;;122.28;;
51692;SDS011;37777;53.066;21.638;2023-11-19T06:12:56;138.70;;;126.63;;
51692;SDS011;37777;53.066;21.638;2023-11-19T06:20:00;143.10;;;127.97;;
51692;SDS011;37777;53.066;21.638;2023-11-19T06:27:05;139.02;;;125.82;;
51692;SDS011;37777;53.066;21.638;2023-11-19T06:34:06;149.45;;;136.48;;
51692;SDS011;37777;53.066;21.638;2023-11-19T06:41:08;146.57;;;134.45;;
51692;SDS011;37777;53.066;21.638;2023-11-19T06:48:13;162.88;;;145.48;;
51692;SDS011;37777;53.066;21.638;2023-11-19T06:55:14;175.40;;;144.38;;
51692;SDS011;37777;53.066;21.638;2023-11-19T07:02:17;159.68;;;145.52;;
51692;SDS011;37777;53.066;21.638;2023-11-19T07:09:18;167.82;;;152.73;;
51692;SDS011;37777;53.066;21.638;2023-11-19T07:16:26;167.10;;;151.93;;
51692;SDS011;37777;53.066;21.638;2023-11-19T07:23:27;163.80;;;148.40;;
51692;SDS011;37777;53.066;21.638;2023-11-19T07:30:31;148.52;;;134.98;;
51692;SDS011;37777;53.066;21.638;2023-11-19T07:37:32;152.15;;;139.75;;
51692;SDS011;37777;53.066;21.638;2023-11-19T07:52:55;156.30;;;142.93;;
51692;SDS011;37777;53.066;21.638;2023-11-19T07:59:57;158.88;;;145.27;;
51692;SDS011;37777;53.066;21.638;2023-11-19T08:06:59;155.02;;;141.88;;
51692;SDS011;37777;53.066;21.638;2023-11-19T08:14:00;157.85;;;143.98;;
51692;SDS011;37777;53.066;21.638;2023-11-19T08:21:02;149.85;;;136.20;;
51692;SDS011;37777;53.066;21.638;2023-11-19T08:28:06;140.95;;;128.95;;
51692;SDS011;37777;53.066;21.638;2023-11-19T08:35:07;143.80;;;131.20;;
51692;SDS011;37777;53.066;21.638;2023-11-19T08:42:09;140.75;;;128.27;;
51692;SDS011;37777;53.066;21.638;2023-11-19T08:49:11;136.77;;;124.68;;
51692;SDS011;37777;53.066;21.638;2023-11-19T08:56:12;128.07;;;117.40;;
51692;SDS011;37777;53.066;21.638;2023-11-19T09:03:15;119.18;;;109.60;;
51692;SDS011;37777;53.066;21.638;2023-11-19T09:10:16;118.03;;;109.05;;
51692;SDS011;37777;53.066;21.638;2023-11-19T09:17:18;113.95;;;105.22;;
51692;SDS011;37777;53.066;21.638;2023-11-19T09:24:20;104.97;;;96.28;;
51692;SDS011;37777;53.066;21.638;2023-11-19T09:31:21;104.55;;;96.40;;
51692;SDS011;37777;53.066;21.638;2023-11-19T09:38:23;112.13;;;102.82;;
51692;SDS011;37777;53.066;21.638;2023-11-19T09:45:25;104.05;;;95.32;;
51692;SDS011;37777;53.066;21.638;2023-11-19T09:52:29;101.13;;;92.75;;
51692;SDS011;37777;53.066;21.638;2023-11-19T09:59:30;106.88;;;97.65;;
51692;SDS011;37777;53.066;21.638;2023-11-19T10:06:34;108.78;;;99.30;;
51692;SDS011;37777;53.066;21.638;2023-11-19T10:22:04;101.90;;;93.63;;
51692;SDS011;37777;53.066;21.638;2023-11-19T10:29:06;99.50;;;91.05;;
51692;SDS011;37777;53.066;21.638;2023-11-19T10:36:08;97.20;;;89.35;;
51692;SDS011;37777;53.066;21.638;2023-11-19T10:43:09;98.82;;;90.88;;
51692;SDS011;37777;53.066;21.638;2023-11-19T10:50:11;98.95;;;90.65;;
51692;SDS011;37777;53.066;21.638;2023-11-19T10:57:13;101.25;;;92.35;;
51692;SDS011;37777;53.066;21.638;2023-11-19T11:04:25;98.35;;;89.93;;
51692;SDS011;37777;53.066;21.638;2023-11-19T11:11:29;89.75;;;81.95;;
51692;SDS011;37777;53.066;21.638;2023-11-19T11:18:31;91.22;;;83.13;;
51692;SDS011;37777;53.066;21.638;2023-11-19T11:33:04;82.78;;;75.32;;
51692;SDS011;37777;53.066;21.638;2023-11-19T11:40:19;81.65;;;74.00;;
51692;SDS011;37777;53.066;21.638;2023-11-19T11:47:21;78.50;;;71.25;;
51692;SDS011;37777;53.066;21.638;2023-11-19T12:01:25;78.40;;;71.43;;
51692;SDS011;37777;53.066;21.638;2023-11-19T12:08:29;80.25;;;73.32;;
51692;SDS011;37777;53.066;21.638;2023-11-19T12:15:31;78.97;;;71.90;;
51692;SDS011;37777;53.066;21.638;2023-11-19T12:22:33;79.90;;;72.88;;
51692;SDS011;37777;53.066;21.638;2023-11-19T12:29:45;81.38;;;74.53;;
51692;SDS011;37777;53.066;21.638;2023-11-19T12:36:47;78.88;;;72.13;;
51692;SDS011;37777;53.066;21.638;2023-11-19T12:43:49;78.88;;;71.72;;
51692;SDS011;37777;53.066;21.638;2023-11-19T12:50:55;78.18;;;71.20;;
51692;SDS011;37777;53.066;21.638;2023-11-19T12:58:00;73.55;;;67.40;;
51692;SDS011;37777;53.066;21.638;2023-11-19T13:05:19;82.90;;;76.05;;
51692;SDS011;37777;53.066;21.638;2023-11-19T13:12:22;83.18;;;76.32;;
51692;SDS011;37777;53.066;21.638;2023-11-19T13:19:24;77.25;;;70.95;;
51692;SDS011;37777;53.066;21.638;2023-11-19T13:26:26;70.65;;;64.28;;
51692;SDS011;37777;53.066;21.638;2023-11-19T13:33:28;72.18;;;65.82;;
51692;SDS011;37777;53.066;21.638;2023-11-19T13:40:30;72.03;;;65.47;;
51692;SDS011;37777;53.066;21.638;2023-11-19T13:47:32;78.65;;;71.53;;
51692;SDS011;37777;53.066;21.638;2023-11-19T13:54:33;71.88;;;65.43;;
51692;SDS011;37777;53.066;21.638;2023-11-19T14:01:35;76.60;;;70.30;;
51692;SDS011;37777;53.066;21.638;2023-11-19T14:08:37;76.38;;;70.00;;
51692;SDS011;37777;53.066;21.638;2023-11-19T14:15:38;71.90;;;65.70;;
51692;SDS011;37777;53.066;21.638;2023-11-19T14:22:40;72.05;;;65.68;;
51692;SDS011;37777;53.066;21.638;2023-11-19T14:29:43;68.57;;;62.85;;
51692;SDS011;37777;53.066;21.638;2023-11-19T14:36:49;76.13;;;69.15;;
51692;SDS011;37777;53.066;21.638;2023-11-19T14:43:50;67.07;;;60.78;;
51692;SDS011;37777;53.066;21.638;2023-11-19T14:50:52;81.78;;;73.07;;
51692;SDS011;37777;53.066;21.638;2023-11-19T14:57:54;80.72;;;73.30;;
51692;SDS011;37777;53.066;21.638;2023-11-19T15:05:08;86.72;;;78.63;;
51692;SDS011;37777;53.066;21.638;2023-11-19T15:12:14;86.47;;;78.20;;
51692;SDS011;37777;53.066;21.638;2023-11-19T15:19:17;85.53;;;77.38;;
51692;SDS011;37777;53.066;21.638;2023-11-19T15:26:18;88.72;;;79.63;;
51692;SDS011;37777;53.066;21.638;2023-11-19T15:33:23;94.20;;;84.82;;
51692;SDS011;37777;53.066;21.638;2023-11-19T15:40:24;94.90;;;85.30;;
51692;SDS011;37777;53.066;21.638;2023-11-19T15:47:26;93.20;;;84.20;;
51692;SDS011;37777;53.066;21.638;2023-11-19T15:54:28;91.28;;;82.75;;
51692;SDS011;37777;53.066;21.638;2023-11-19T16:01:29;97.63;;;87.60;;
51692;SDS011;37777;53.066;21.638;2023-11-19T16:08:32;100.88;;;91.18;;
51692;SDS011;37777;53.066;21.638;2023-11-19T16:15:33;95.80;;;86.75;;
51692;SDS011;37777;53.066;21.638;2023-11-19T16:22:37;93.75;;;85.32;;
51692;SDS011;37777;53.066;21.638;2023-11-19T16:29:39;104.68;;;93.32;;
51692;SDS011;37777;53.066;21.638;2023-11-19T16:36:41;93.53;;;84.25;;
51692;SDS011;37777;53.066;21.638;2023-11-19T16:43:42;90.63;;;82.13;;
51692;SDS011;37777;53.066;21.638;2023-11-19T16:50:44;88.40;;;80.25;;
51692;SDS011;37777;53.066;21.638;2023-11-19T16:58:04;85.03;;;77.22;;
51692;SDS011;37777;53.066;21.638;2023-11-19T17:05:06;82.85;;;74.38;;
51692;SDS011;37777;53.066;21.638;2023-11-19T17:12:08;78.22;;;70.72;;
51692;SDS011;37777;53.066;21.638;2023-11-19T17:19:10;73.93;;;66.43;;
51692;SDS011;37777;53.066;21.638;2023-11-19T17:26:11;71.90;;;64.82;;
51692;SDS011;37777;53.066;21.638;2023-11-19T17:33:13;70.28;;;63.08;;
51692;SDS011;37777;53.066;21.638;2023-11-19T17:40:15;69.60;;;62.47;;
51692;SDS011;37777;53.066;21.638;2023-11-19T17:47:18;74.82;;;67.78;;
51692;SDS011;37777;53.066;21.638;2023-11-19T17:54:21;73.85;;;66.95;;
51692;SDS011;37777;53.066;21.638;2023-11-19T18:01:23;74.82;;;67.97;;
51692;SDS011;37777;53.066;21.638;2023-11-19T18:08:25;78.45;;;71.22;;
51692;SDS011;37777;53.066;21.638;2023-11-19T18:15:26;80.97;;;73.25;;
51692;SDS011;37777;53.066;21.638;2023-11-19T18:22:28;78.47;;;70.82;;
51692;SDS011;37777;53.066;21.638;2023-11-19T18:29:32;80.35;;;72.30;;
51692;SDS011;37777;53.066;21.638;2023-11-19T18:36:36;83.72;;;75.53;;
51692;SDS011;37777;53.066;21.638;2023-11-19T18:43:38;82.05;;;74.22;;
51692;SDS011;37777;53.066;21.638;2023-11-19T18:50:40;89.97;;;80.88;;
51692;SDS011;37777;53.066;21.638;2023-11-19T18:57:44;91.88;;;82.15;;
51692;SDS011;37777;53.066;21.638;2023-11-19T19:04:46;83.97;;;74.93;;
51692;SDS011;37777;53.066;21.638;2023-11-19T19:11:48;84.18;;;74.97;;
51692;SDS011;37777;53.066;21.638;2023-11-19T19:18:50;80.45;;;72.25;;
51692;SDS011;37777;53.066;21.638;2023-11-19T19:25:52;77.57;;;69.55;;
51692;SDS011;37777;53.066;21.638;2023-11-19T19:32:55;77.28;;;69.22;;
51692;SDS011;37777;53.066;21.638;2023-11-19T19:39:57;74.57;;;66.65;;
51692;SDS011;37777;53.066;21.638;2023-11-19T19:46:59;71.78;;;64.07;;
51692;SDS011;37777;53.066;21.638;2023-11-19T19:54:00;73.28;;;61.53;;
51692;SDS011;37777;53.066;21.638;2023-11-19T20:01:02;69.15;;;61.55;;
51692;SDS011;37777;53.066;21.638;2023-11-19T20:08:04;68.45;;;59.83;;
51692;SDS011;37777;53.066;21.638;2023-11-19T20:15:08;66.80;;;59.88;;
51692;SDS011;37777;53.066;21.638;2023-11-19T20:22:10;67.65;;;60.55;;
51692;SDS011;37777;53.066;21.638;2023-11-19T20:29:12;67.30;;;60.20;;
51692;SDS011;37777;53.066;21.638;2023-11-19T20:36:13;72.63;;;61.92;;
51692;SDS011;37777;53.066;21.638;2023-11-19T20:43:16;70.85;;;63.38;;
51692;SDS011;37777;53.066;21.638;2023-11-19T20:50:18;73.50;;;65.78;;
51692;SDS011;37777;53.066;21.638;2023-11-19T20:57:23;70.93;;;63.83;;
51692;SDS011;37777;53.066;21.638;2023-11-19T21:04:24;75.57;;;68.15;;
51692;SDS011;37777;53.066;21.638;2023-11-19T21:11:26;78.57;;;70.63;;
51692;SDS011;37777;53.066;21.638;2023-11-19T21:18:28;79.22;;;71.53;;
51692;SDS011;37777;53.066;21.638;2023-11-19T21:25:31;75.00;;;67.78;;
51692;SDS011;37777;53.066;21.638;2023-11-19T21:32:33;72.82;;;65.88;;
51692;SDS011;37777;53.066;21.638;2023-11-19T21:39:35;74.13;;;67.35;;
51692;SDS011;37777;53.066;21.638;2023-11-19T21:46:40;74.90;;;68.15;;
51692;SDS011;37777;53.066;21.638;2023-11-19T21:53:41;76.38;;;68.97;;
51692;SDS011;37777;53.066;21.638;2023-11-19T22:00:43;70.97;;;64.40;;
51692;SDS011;37777;53.066;21.638;2023-11-19T22:07:45;68.38;;;62.13;;
51692;SDS011;37777;53.066;21.638;2023-11-19T22:14:46;71.72;;;65.55;;
51692;SDS011;37777;53.066;21.638;2023-11-19T22:21:48;69.78;;;63.60;;
51692;SDS011;37777;53.066;21.638;2023-11-19T22:28:49;68.70;;;62.72;;
51692;SDS011;37777;53.066;21.638;2023-11-19T22:35:51;69.70;;;63.55;;
51692;SDS011;37777;53.066;21.638;2023-11-19T22:42:52;68.15;;;62.50;;
51692;SDS011;37777;53.066;21.638;2023-11-19T22:49:57;67.28;;;61.83;;
51692;SDS011;37777;53.066;21.638;2023-11-19T22:56:59;65.07;;;59.53;;
51692;SDS011;37777;53.066;21.638;2023-11-19T23:04:00;66.10;;;60.47;;
51692;SDS011;37777;53.066;21.638;2023-11-19T23:11:02;63.60;;;58.50;;
51692;SDS011;37777;53.066;21.638;2023-11-19T23:18:04;63.35;;;58.45;;
51692;SDS011;37777;53.066;21.638;2023-11-19T23:25:06;59.15;;;54.03;;
51692;SDS011;37777;53.066;21.638;2023-11-19T23:32:08;64.75;;;59.55;;
51692;SDS011;37777;53.066;21.638;2023-11-19T23:39:10;62.67;;;57.70;;
51692;SDS011;37777;53.066;21.638;2023-11-19T23:46:13;60.85;;;55.85;;
51692;SDS011;37777;53.066;21.638;2023-11-19T23:53:15;62.15;;;57.20;;
